ADDS METAR Data INFO
IDs: Format: Raw Decoded Include TAF

Data at: 0146 UTC 17 Oct 2017

KMHL 170135Z AUTO 00000KT 10SM CLR 13/06 A3027 RMK AO2
KMHL 170115Z AUTO 00000KT 10SM CLR 14/06 A3027 RMK AO2
KMHL 170055Z AUTO 00000KT 10SM CLR 15/06 A3027 RMK AO2
KMHL 170035Z AUTO 00000KT 10SM CLR 15/06 A3027 RMK AO2
KMHL 170015Z AUTO 00000KT 10SM CLR 16/06 A3027 RMK AO2
KMHL 162355Z AUTO 00000KT 10SM CLR 17/05 A3027 RMK AO2
KMHL 162335Z AUTO 22003KT 10SM CLR 18/05 A3027 RMK AO2
KMHL 162315Z AUTO 00000KT 10SM CLR 19/05 A3027 RMK AO2
KMHL 162255Z AUTO 00000KT 10SM CLR 20/04 A3027 RMK AO2
KMHL 162235Z AUTO 22004KT 10SM CLR 21/04 A3027 RMK AO2
KMHL 162215Z AUTO 21004KT 10SM CLR 21/04 A3027 RMK AO2
KMHL 162155Z AUTO 23003KT 10SM CLR 21/04 A3028 RMK AO2
KMHL 162135Z AUTO 23005KT 10SM CLR 21/04 A3029 RMK AO2
KMHL 162115Z AUTO 00000KT 10SM CLR 21/05 A3030 RMK AO2
KMHL 162055Z AUTO 00000KT 10SM CLR 21/05 A3030 RMK AO2
KMHL 162035Z AUTO 00000KT 10SM CLR 21/04 A3031 RMK AO2
KMHL 162015Z AUTO 23003KT 10SM CLR 21/05 A3031 RMK AO2
KMHL 161955Z AUTO 25005KT 10SM CLR 21/03 A3032 RMK AO2
KMHL 161935Z AUTO 29003KT 10SM CLR 21/04 A3033 RMK AO2
KMHL 161915Z AUTO 23003KT 10SM CLR 20/03 A3034 RMK AO2
KMHL 161855Z AUTO 23003KT 10SM CLR 20/03 A3035 RMK AO2
KMHL 161835Z AUTO 00000KT 10SM CLR 20/04 A3036 RMK AO2
KMHL 161815Z AUTO 27003KT 10SM CLR 20/05 A3038 RMK AO2
KMHL 161755Z AUTO 24004KT 10SM CLR 19/05 A3039 RMK AO2
KMHL 161735Z AUTO 00000KT 10SM CLR 18/04 A3039 RMK AO2
KMHL 161715Z AUTO 00000KT 10SM CLR 18/05 A3040 RMK AO2
KMHL 161655Z AUTO 23003KT 10SM CLR 18/07 A3041 RMK AO2
KMHL 161635Z AUTO 23004KT 10SM CLR 17/07 A3041 RMK AO2
KMHL 161615Z AUTO 00000KT 10SM CLR 16/06 A3041 RMK AO2
KMHL 161555Z AUTO 23004KT 10SM CLR 15/06 A3041 RMK AO2
KMHL 161535Z AUTO 23006KT 10SM CLR 15/06 A3042 RMK AO2
KMHL 161515Z AUTO 24006KT 10SM CLR 15/07 A3042 RMK AO2
KMHL 161455Z AUTO 24005KT 10SM CLR 13/07 A3042 RMK AO2
KMHL 161435Z AUTO 24004KT 10SM CLR 11/07 A3042 RMK AO2
KMHL 161415Z AUTO 23003KT 10SM CLR 10/07 A3042 RMK AO2
KMHL 161355Z AUTO 00000KT 10SM CLR 08/07 A3042 RMK AO2
KMHL 161335Z AUTO 00000KT 10SM CLR 07/06 A3041 RMK AO2
KMHL 161315Z AUTO 00000KT 10SM CLR 06/06 A3040 RMK AO2
KMHL 161255Z AUTO 00000KT 10SM CLR 06/05 A3040 RMK AO2
KMHL 161235Z AUTO 00000KT 10SM CLR 05/05 A3040 RMK AO2
KMHL 161215Z AUTO 00000KT 10SM CLR 05/05 A3039 RMK AO2
KMHL 161155Z AUTO 00000KT 10SM CLR 05/05 A3039 RMK AO2
KMHL 161135Z AUTO 00000KT 10SM CLR 05/05 A3039 RMK AO2
KMHL 161115Z AUTO 00000KT 10SM CLR 05/05 A3039 RMK AO2
KMHL 161055Z AUTO 00000KT 10SM CLR 06/05 A3039 RMK AO2
KMHL 161035Z AUTO 00000KT 10SM CLR 06/05 A3039 RMK AO2
KMHL 161015Z AUTO 00000KT 10SM CLR 06/05 A3039 RMK AO2
KMHL 160955Z AUTO 00000KT 10SM CLR 06/05 A3038 RMK AO2
KMHL 160935Z AUTO 00000KT 10SM CLR 06/05 A3038 RMK AO2
KMHL 160915Z AUTO 00000KT 10SM CLR 06/05 A3038 RMK AO2
KMHL 160855Z AUTO 00000KT 10SM CLR 06/05 A3038 RMK AO2
KMHL 160835Z AUTO 00000KT 10SM CLR 06/05 A3038 RMK AO2
KMHL 160815Z AUTO 00000KT 10SM CLR 06/05 A3038 RMK AO2
KMHL 160755Z AUTO 00000KT 10SM CLR 06/05 A3038 RMK AO2
KMHL 160735Z AUTO 00000KT 10SM CLR 06/05 A3038 RMK AO2
KMHL 160715Z AUTO 00000KT 10SM CLR 06/05 A3038 RMK AO2
KMHL 160655Z AUTO 00000KT 10SM CLR 06/05 A3037 RMK AO2
KMHL 160635Z AUTO 00000KT 10SM CLR 06/05 A3037 RMK AO2
KMHL 160615Z AUTO 00000KT 10SM CLR 07/05 A3037 RMK AO2
KMHL 160555Z AUTO 00000KT 10SM CLR 07/05 A3037 RMK AO2
KMHL 160535Z AUTO 00000KT 10SM CLR 07/06 A3037 RMK AO2
KMHL 160515Z AUTO 00000KT 10SM CLR 08/06 A3037 RMK AO2
KMHL 160455Z AUTO 00000KT 10SM CLR 08/06 A3038 RMK AO2
KMHL 160435Z AUTO 00000KT 10SM CLR 08/05 A3038 RMK AO2
KMHL 160415Z AUTO 00000KT 10SM CLR 10/05 A3038 RMK AO2
KMHL 160355Z AUTO 00000KT 10SM CLR 10/06 A3038 RMK AO2
KMHL 160335Z AUTO 00000KT 10SM CLR 10/06 A3037 RMK AO2
KMHL 160315Z AUTO 00000KT 10SM CLR 10/06 A3037 RMK AO2
KMHL 160255Z AUTO 00000KT 10SM CLR 11/06 A3036 RMK AO2
KMHL 160235Z AUTO 00000KT 10SM CLR 10/06 A3036 RMK AO2
KMHL 160215Z AUTO 00000KT 10SM CLR 11/06 A3036 RMK AO2
KMHL 160155Z AUTO 00000KT 10SM CLR 11/06 A3035 RMK AO2
KMHL 160135Z AUTO 00000KT 10SM CLR 11/06 A3035 RMK AO2
KMHL 160115Z AUTO 00000KT 10SM CLR 12/06 A3035 RMK AO2
KMHL 160055Z AUTO 00000KT 10SM CLR 12/06 A3034 RMK AO2
KMHL 160035Z AUTO 00000KT 10SM CLR 13/05 A3033 RMK AO2
KMHL 160015Z AUTO 30003KT 10SM CLR 13/06 A3032 RMK AO2
KMHL 152355Z AUTO 00000KT 10SM CLR 14/05 A3032 RMK AO2
KMHL 152335Z AUTO 32005KT 10SM CLR 15/05 A3032 RMK AO2
KMHL 152315Z AUTO 31005KT 10SM CLR 16/05 A3032 RMK AO2
KMHL 152255Z AUTO 32007KT 10SM CLR 16/05 A3031 RMK AO2
KMHL 152235Z AUTO 29008KT 10SM CLR 17/05 A3031 RMK AO2
KMHL 152215Z AUTO 30009KT 10SM CLR 17/05 A3031 RMK AO2
KMHL 152155Z AUTO 30010KT 10SM CLR 17/06 A3031 RMK AO2
KMHL 152135Z AUTO 29009KT 10SM CLR 17/06 A3031 RMK AO2
KMHL 152115Z AUTO 32008KT 10SM CLR 17/06 A3031 RMK AO2
KMHL 152055Z AUTO 31007G16KT 10SM CLR 17/06 A3031 RMK AO2
KMHL 152035Z AUTO 30011G15KT 10SM CLR 17/06 A3031 RMK AO2
KMHL 152015Z AUTO 32013G19KT 10SM SCT042 17/07 A3031 RMK AO2
KMHL 151955Z AUTO 31009G14KT 10SM SCT041 17/07 A3031 RMK AO2
KMHL 151935Z AUTO 30011G17KT 10SM CLR 16/08 A3031 RMK AO2
KMHL 151915Z AUTO 33008G16KT 10SM SCT038 16/07 A3031 RMK AO2
KMHL 151855Z AUTO 31008G16KT 10SM SCT036 16/07 A3032 RMK AO2
KMHL 151835Z AUTO 29013G18KT 10SM SCT036 16/07 A3032 RMK AO2
KMHL 151815Z AUTO 31012G18KT 10SM SCT032 15/07 A3032 RMK AO2
KMHL 151755Z AUTO 30009G20KT 10SM SCT032 15/07 A3032 RMK AO2
KMHL 151735Z AUTO 31013KT 10SM CLR 14/07 A3032 RMK AO2
KMHL 151715Z AUTO 33011G14KT 10SM SCT029 14/07 A3031 RMK AO2
KMHL 151655Z AUTO 30011G16KT 283V343 10SM SCT027 SCT033 13/07 A3032 RMK AO2
KMHL 151635Z AUTO 34010G16KT 10SM BKN027 13/07 A3032 RMK AO2
KMHL 151615Z AUTO 31010G19KT 10SM BKN027 13/07 A3032 RMK AO2
KMHL 151555Z AUTO 32010G17KT 10SM BKN025 12/07 A3031 RMK AO2
KMHL 151535Z AUTO 33009G17KT 10SM BKN025 12/07 A3031 RMK AO2
KMHL 151515Z AUTO 33011G19KT 10SM BKN025 11/06 A3030 RMK AO2
KMHL 151455Z AUTO 33009G19KT 10SM BKN025 11/06 A3030 RMK AO2
KMHL 151435Z AUTO 32014G19KT 10SM OVC025 11/06 A3029 RMK AO2
KMHL 151415Z AUTO 33014G21KT 10SM OVC025 11/06 A3028 RMK AO2
KMHL 151355Z AUTO 31009G16KT 10SM BKN027 11/06 A3026 RMK AO2